createdAt,value
2023-01-30T00:00:05.612Z,39.47
2023-01-30T00:05:07.192Z,38.92
2023-01-30T00:10:09.225Z,35.20
2023-01-30T00:15:10.050Z,44.20
2023-01-30T00:20:11.549Z,36.97
2023-01-30T00:25:12.424Z,39.90
2023-01-30T00:30:13.740Z,38.75
2023-01-30T00:35:14.608Z,43.30
2023-01-30T00:40:16.432Z,39.85
2023-01-30T00:45:36.028Z,45.50
2023-01-30T00:50:42.906Z,37.33
2023-01-30T00:55:45.975Z,34.38
2023-01-30T01:00:46.845Z,38.88
2023-01-30T01:05:48.213Z,37.88
2023-01-30T01:10:49.039Z,39.85
2023-01-30T01:15:49.952Z,41.30
2023-01-30T01:20:50.789Z,51.65
2023-01-30T01:25:51.537Z,46.00
2023-01-30T01:30:52.402Z,49.63
2023-01-30T01:35:56.669Z,44.67
2023-01-30T01:41:05.307Z,46.47
2023-01-30T01:46:17.833Z,41.28
2023-01-30T01:51:33.053Z,40.72
2023-01-30T01:56:38.625Z,39.22
2023-01-30T02:01:39.693Z,39.47
2023-01-30T02:06:42.719Z,42.08
2023-01-30T02:11:50.153Z,41.33
2023-01-30T02:16:50.893Z,49.40
2023-01-30T02:24:45.116Z,37.63
2023-01-30T02:30:11.455Z,36.13
2023-01-30T02:35:40.281Z,38.05
2023-01-30T02:41:26.715Z,31.90
2023-01-30T02:47:00.217Z,34.95
2023-01-30T02:57:03.550Z,30.10
2023-01-30T03:05:21.965Z,29.40
2023-01-30T03:10:40.960Z,28.85
2023-01-30T03:15:55.171Z,27.08
2023-01-30T03:20:56.284Z,27.75
2023-01-30T03:25:58.243Z,31.62
2023-01-30T03:30:59.103Z,25.62
2023-01-30T03:36:00.145Z,26.12
2023-01-30T03:41:03.362Z,26.70
2023-01-30T03:46:04.519Z,26.90
2023-01-30T03:51:05.479Z,26.92
2023-01-30T03:56:06.320Z,25.50
2023-01-30T04:01:08.327Z,24.55
2023-01-30T04:06:09.298Z,26.98
2023-01-30T04:11:10.264Z,28.17
2023-01-30T04:16:23.351Z,22.60
2023-01-30T04:22:55.636Z,25.70
2023-01-30T04:27:56.904Z,27.62
2023-01-30T04:33:04.472Z,26.85
2023-01-30T04:38:05.270Z,24.85
2023-01-30T04:43:06.541Z,25.12
2023-01-30T04:49:41.114Z,22.37
2023-01-30T04:54:42.170Z,21.67
2023-01-30T04:59:43.030Z,21.62
2023-01-30T05:04:44.980Z,22.50
2023-01-30T05:09:45.771Z,17.17
2023-01-30T05:14:47.144Z,18.08
2023-01-30T05:19:47.947Z,18.83
2023-01-30T05:24:48.738Z,18.23
2023-01-30T05:29:49.464Z,24.92
2023-01-30T05:34:50.257Z,24.90
2023-01-30T05:39:51.255Z,28.38
2023-01-30T05:44:52.085Z,22.30
2023-01-30T05:49:52.796Z,35.95
2023-01-30T05:54:53.597Z,26.98
2023-01-30T05:59:54.328Z,23.45
2023-01-30T06:04:55.259Z,32.42
2023-01-30T06:09:55.971Z,31.33
2023-01-30T06:14:57.923Z,33.40
2023-01-30T06:19:58.632Z,30.37
2023-01-30T06:24:59.423Z,34.28
2023-01-30T06:30:00.299Z,33.42
2023-01-30T06:35:01.353Z,28.73
2023-01-30T06:40:02.275Z,30.25
2023-01-30T06:45:04.100Z,24.92
2023-01-30T06:50:04.945Z,24.37
2023-01-30T06:55:07.249Z,19.73
2023-01-30T07:00:11.462Z,23.27
2023-01-30T07:05:13.599Z,19.60
2023-01-30T07:10:14.661Z,16.52
2023-01-30T07:15:15.798Z,14.00
2023-01-30T07:20:16.780Z,11.90
2023-01-30T07:25:22.493Z,13.00
2023-01-30T07:30:24.336Z,10.50
2023-01-30T07:35:28.161Z,9.90
2023-01-30T07:40:29.095Z,11.32
2023-01-30T07:45:44.110Z,9.23
2023-01-30T07:50:45.906Z,9.25
2023-01-30T07:55:46.982Z,8.27
2023-01-30T08:00:47.896Z,9.02
2023-01-30T08:05:49.405Z,8.43
2023-01-30T08:10:50.472Z,9.85
2023-01-30T08:15:51.661Z,8.60
2023-01-30T08:20:56.693Z,10.32
2023-01-30T08:25:59.379Z,7.50
2023-01-30T08:31:00.536Z,6.72
2023-01-30T08:36:01.381Z,6.10
2023-01-30T08:41:04.938Z,5.75
2023-01-30T08:46:05.960Z,7.10
2023-01-30T08:51:06.806Z,8.98
2023-01-30T08:56:07.582Z,4.65
2023-01-30T09:01:08.747Z,5.25
2023-01-30T09:06:09.568Z,6.00
2023-01-30T09:11:11.643Z,4.10
2023-01-30T09:16:12.573Z,3.30
2023-01-30T09:21:14.118Z,3.45
2023-01-30T09:26:14.938Z,3.53
2023-01-30T09:31:15.938Z,4.62
2023-01-30T09:36:16.862Z,3.80
2023-01-30T09:44:03.001Z,2.90
2023-01-30T09:49:29.535Z,3.30
2023-01-30T09:54:35.622Z,3.97
2023-01-30T09:59:55.192Z,4.18
2023-01-30T10:05:01.725Z,4.53
2023-01-30T10:11:08.943Z,4.30
2023-01-30T10:16:21.694Z,3.08
2023-01-30T10:29:44.870Z,4.10
2023-01-30T10:34:50.879Z,2.60
2023-01-30T10:40:46.442Z,3.08
2023-01-30T10:46:19.294Z,3.15
2023-01-30T10:52:20.730Z,2.72
2023-01-30T10:58:18.826Z,3.05
2023-01-30T11:03:52.299Z,2.58
2023-01-30T11:08:54.646Z,2.60
2023-01-30T11:14:07.676Z,3.00
2023-01-30T11:19:20.144Z,4.82
2023-01-30T11:24:28.820Z,3.05
2023-01-30T11:29:32.578Z,6.18
2023-01-30T11:34:33.346Z,3.65
2023-01-30T11:39:34.689Z,4.28
2023-01-30T11:44:39.511Z,4.87
2023-01-30T11:49:55.859Z,6.82
2023-01-30T11:56:46.639Z,5.87
2023-01-30T12:01:47.797Z,5.70
2023-01-30T12:07:05.151Z,6.60
2023-01-30T12:12:32.654Z,3.87
2023-01-30T12:22:50.358Z,4.05
2023-01-30T12:28:35.490Z,3.67
2023-01-30T12:33:36.737Z,5.25
2023-01-30T12:42:46.992Z,7.75
2023-01-30T12:51:10.458Z,10.65
2023-01-30T12:56:32.990Z,6.93
2023-01-30T13:03:07.640Z,8.37
2023-01-30T13:08:41.986Z,8.48
2023-01-30T13:13:56.224Z,16.77
2023-01-30T13:19:21.170Z,7.43
2023-01-30T13:24:51.082Z,13.60
2023-01-30T13:29:53.455Z,8.52
2023-01-30T13:34:56.310Z,13.70
2023-01-30T13:40:03.352Z,12.18
2023-01-30T13:45:09.242Z,22.10
2023-01-30T13:50:44.797Z,17.27
2023-01-30T13:56:01.669Z,22.60
2023-01-30T14:01:02.699Z,13.38
2023-01-30T14:06:09.760Z,9.13
2023-01-30T14:13:05.130Z,9.85
2023-01-30T14:18:22.160Z,14.73
2023-01-30T14:23:34.132Z,10.18
2023-01-30T14:28:44.185Z,13.57
2023-01-30T14:33:50.682Z,11.27
2023-01-30T14:39:36.822Z,15.68
2023-01-30T14:45:01.188Z,12.85
2023-01-30T14:50:02.075Z,24.15
2023-01-30T14:55:03.880Z,15.07
2023-01-30T15:00:18.616Z,16.23
2023-01-30T15:05:33.810Z,13.20
2023-01-30T15:11:03.863Z,13.40
2023-01-30T15:17:08.719Z,13.98
2023-01-30T15:22:27.603Z,13.48
2023-01-30T15:28:11.382Z,15.30
2023-01-30T15:38:33.540Z,26.75
2023-01-30T15:49:22.932Z,15.80
2023-01-30T15:54:23.716Z,21.45
2023-01-30T15:59:39.387Z,16.27
2023-01-30T16:04:40.338Z,26.77
2023-01-30T16:09:42.663Z,28.40
2023-01-30T16:14:46.377Z,22.33
2023-01-30T16:19:47.217Z,14.40
2023-01-30T16:24:53.197Z,14.60
2023-01-30T16:29:59.711Z,16.08
2023-01-30T16:35:30.516Z,20.02
2023-01-30T16:40:45.200Z,12.23
2023-01-30T16:47:22.939Z,41.30
2023-01-30T16:52:46.541Z,25.90
2023-01-30T16:58:02.254Z,58.03
2023-01-30T17:03:07.488Z,38.47
2023-01-30T17:08:53.770Z,53.45
2023-01-30T17:14:19.049Z,55.15
2023-01-30T17:19:22.576Z,46.03
2023-01-30T17:24:24.669Z,40.83
2023-01-30T17:29:41.353Z,39.58
2023-01-30T17:34:43.176Z,36.63
2023-01-30T17:39:44.286Z,32.92
2023-01-30T17:44:45.144Z,33.88
2023-01-30T17:49:45.880Z,32.13
2023-01-30T17:54:46.915Z,40.85
2023-01-30T17:59:47.668Z,22.48
2023-01-30T18:04:48.429Z,23.95
2023-01-30T18:09:49.189Z,28.23
2023-01-30T18:14:49.954Z,21.55
2023-01-30T18:19:50.945Z,26.73
2023-01-30T18:24:51.789Z,47.60
2023-01-30T18:29:52.583Z,27.37
2023-01-30T18:34:53.342Z,22.45
2023-01-30T18:39:54.163Z,19.90
2023-01-30T18:44:55.380Z,35.05
2023-01-30T18:49:56.154Z,22.23
2023-01-30T18:54:57.003Z,16.50
2023-01-30T18:59:57.751Z,21.65
2023-01-30T19:04:58.508Z,19.90
2023-01-30T19:09:59.248Z,19.52
2023-01-30T19:15:00.811Z,22.52
2023-01-30T19:20:04.010Z,22.15
2023-01-30T19:25:05.795Z,26.45
2023-01-30T19:30:07.724Z,25.27
2023-01-30T19:35:09.004Z,25.10
2023-01-30T19:40:11.096Z,15.80
2023-01-30T19:45:11.825Z,20.85
2023-01-30T19:50:13.149Z,24.45
2023-01-30T19:55:17.809Z,22.25
2023-01-30T20:00:20.783Z,24.90
2023-01-30T20:10:22.517Z,26.33
2023-01-30T20:15:23.273Z,21.45
2023-01-30T20:20:24.042Z,29.98
2023-01-30T20:25:24.943Z,19.50
2023-01-30T20:30:25.696Z,35.17
2023-01-30T20:35:26.431Z,23.92
2023-01-30T20:40:27.210Z,23.42
2023-01-30T20:45:27.985Z,32.05
2023-01-30T20:50:29.098Z,23.20
2023-01-30T20:55:29.916Z,16.90
2023-01-30T21:00:30.664Z,21.30
2023-01-30T21:05:31.413Z,21.00
2023-01-30T21:10:36.077Z,19.45
2023-01-30T21:15:36.973Z,31.50
2023-01-30T21:20:38.266Z,21.37
2023-01-30T21:25:39.173Z,27.42
2023-01-30T21:30:41.174Z,23.52
2023-01-30T21:35:41.947Z,19.73
2023-01-30T21:41:10.141Z,17.05
2023-01-30T21:46:15.835Z,21.77
2023-01-30T21:51:16.564Z,30.92
2023-01-30T21:56:17.573Z,25.42
2023-01-30T22:01:18.376Z,26.00
2023-01-30T22:06:19.908Z,34.47
2023-01-30T22:11:20.676Z,42.13
2023-01-30T22:16:25.287Z,31.70
2023-01-30T22:21:28.468Z,40.03
2023-01-30T22:26:29.454Z,31.08
2023-01-30T22:31:35.465Z,33.97
2023-01-30T22:36:37.181Z,27.70
2023-01-30T22:41:38.667Z,51.53
2023-01-30T22:46:40.505Z,25.58
2023-01-30T22:51:42.787Z,52.17
2023-01-30T22:56:45.733Z,40.60
2023-01-30T23:01:49.816Z,38.38
2023-01-30T23:06:51.435Z,51.17
2023-01-30T23:12:13.549Z,40.10
2023-01-30T23:17:34.257Z,71.25
2023-01-30T23:22:35.529Z,35.53
2023-01-30T23:27:36.733Z,39.20
2023-01-30T23:32:38.084Z,53.80
2023-01-30T23:37:57.405Z,28.52
2023-01-30T23:42:58.237Z,32.78
2023-01-30T23:47:59.000Z,40.55
2023-01-30T23:52:59.756Z,33.78
2023-01-30T23:58:01.130Z,52.60
